createdAt,value
2023-02-17T00:01:30.655Z,29.60
2023-02-17T00:03:59.173Z,29.00
2023-02-17T00:06:28.890Z,28.75
2023-02-17T00:08:58.103Z,28.45
2023-02-17T00:11:26.857Z,27.25
2023-02-17T00:13:56.423Z,26.25
2023-02-17T00:16:26.625Z,27.85
2023-02-17T00:18:57.070Z,28.60
2023-02-17T00:21:26.230Z,26.58
2023-02-17T00:23:54.747Z,26.40
2023-02-17T00:26:23.600Z,25.75
2023-02-17T00:28:52.302Z,24.52
2023-02-17T00:31:21.522Z,23.98
2023-02-17T00:33:50.479Z,24.05
2023-02-17T00:36:21.176Z,23.33
2023-02-17T00:38:49.980Z,21.85
2023-02-17T00:41:18.307Z,22.13
2023-02-17T00:43:46.728Z,22.23
2023-02-17T00:46:15.037Z,20.30
2023-02-17T00:48:43.500Z,19.83
2023-02-17T00:51:11.910Z,18.00
2023-02-17T00:53:41.963Z,17.67
2023-02-17T00:56:10.589Z,20.70
2023-02-17T00:58:39.069Z,19.45
2023-02-17T01:01:07.470Z,18.83
2023-02-17T01:03:35.796Z,18.40
2023-02-17T01:06:07.456Z,20.23
2023-02-17T01:08:36.149Z,18.05
2023-02-17T01:11:05.846Z,18.40
2023-02-17T01:13:34.174Z,18.27
2023-02-17T01:16:02.495Z,17.13
2023-02-17T01:18:30.799Z,14.23
2023-02-17T01:20:59.071Z,12.70
2023-02-17T01:23:27.401Z,14.85
2023-02-17T01:25:55.715Z,11.75
2023-02-17T01:28:25.363Z,11.25
2023-02-17T01:30:53.722Z,10.45
2023-02-17T01:33:22.063Z,10.60
2023-02-17T01:35:50.398Z,8.68
2023-02-17T01:38:18.723Z,8.93
2023-02-17T01:40:50.264Z,8.25
2023-02-17T01:43:19.206Z,8.73
2023-02-17T01:45:54.294Z,8.25
2023-02-17T01:48:23.594Z,8.00
2023-02-17T01:50:52.962Z,8.25
2023-02-17T01:53:23.826Z,7.70
2023-02-17T01:55:52.747Z,8.38
2023-02-17T01:58:21.760Z,7.95
2023-02-17T02:00:50.669Z,8.15
2023-02-17T02:03:20.491Z,8.32
2023-02-17T02:05:48.822Z,8.00
2023-02-17T02:08:17.142Z,8.10
2023-02-17T02:10:45.479Z,7.55
2023-02-17T02:13:13.809Z,8.32
2023-02-17T02:15:46.412Z,7.22
2023-02-17T02:18:22.182Z,7.85
2023-02-17T02:21:11.438Z,7.63
2023-02-17T02:23:51.325Z,7.47
2023-02-17T02:26:38.333Z,7.85
2023-02-17T02:29:27.043Z,7.40
2023-02-17T02:32:01.956Z,7.70
2023-02-17T02:34:33.715Z,6.65
2023-02-17T02:37:03.931Z,7.35
2023-02-17T02:39:35.995Z,7.30
2023-02-17T02:42:07.345Z,7.07
2023-02-17T02:44:35.684Z,6.80
2023-02-17T02:47:05.453Z,6.78
2023-02-17T02:49:37.241Z,6.57
2023-02-17T02:52:07.836Z,6.30
2023-02-17T02:54:43.321Z,6.72
2023-02-17T02:57:26.786Z,7.05
2023-02-17T03:00:00.231Z,6.63
2023-02-17T03:02:31.426Z,6.88
2023-02-17T03:05:04.325Z,6.05
2023-02-17T03:07:35.044Z,6.20
2023-02-17T03:10:03.476Z,6.80
2023-02-17T03:12:32.032Z,6.63
2023-02-17T03:15:02.962Z,6.70
2023-02-17T03:17:32.710Z,6.40
2023-02-17T03:20:03.539Z,7.07
2023-02-17T03:22:33.383Z,7.18
2023-02-17T03:25:02.129Z,6.47
2023-02-17T03:27:30.773Z,6.80
2023-02-17T03:29:59.114Z,7.00
2023-02-17T03:32:27.561Z,7.15
2023-02-17T03:34:55.874Z,6.43
2023-02-17T03:37:25.637Z,6.72
2023-02-17T03:39:53.989Z,6.57
2023-02-17T03:42:22.338Z,6.00
2023-02-17T03:44:50.626Z,6.75
2023-02-17T03:47:18.956Z,6.55
2023-02-17T03:49:47.295Z,6.50
2023-02-17T03:52:15.612Z,6.07
2023-02-17T03:54:45.327Z,6.25
2023-02-17T03:57:13.673Z,6.45
2023-02-17T03:59:42.018Z,6.60
2023-02-17T04:02:10.351Z,6.82
2023-02-17T04:04:39.226Z,6.88
2023-02-17T04:07:07.566Z,5.97
2023-02-17T04:09:35.821Z,6.85
2023-02-17T04:12:05.686Z,6.57
2023-02-17T04:14:34.013Z,6.20
2023-02-17T04:17:02.328Z,6.20
2023-02-17T04:19:30.603Z,6.43
2023-02-17T04:21:58.951Z,7.10
2023-02-17T04:24:27.216Z,6.95
2023-02-17T04:26:55.743Z,5.97
2023-02-17T04:29:25.339Z,6.88
2023-02-17T04:31:53.741Z,6.13
2023-02-17T04:34:22.043Z,6.38
2023-02-17T04:36:50.315Z,5.85
2023-02-17T04:39:18.608Z,6.05
2023-02-17T04:41:46.897Z,6.43
2023-02-17T04:44:15.186Z,6.15
2023-02-17T04:46:44.834Z,5.72
2023-02-17T04:49:13.100Z,5.72
2023-02-17T04:51:41.366Z,6.13
2023-02-17T04:54:09.664Z,5.53
2023-02-17T04:56:37.939Z,5.97
2023-02-17T04:59:06.228Z,6.10
2023-02-17T05:01:34.575Z,6.30
2023-02-17T05:04:04.254Z,5.88
2023-02-17T05:06:32.553Z,6.22
2023-02-17T05:09:01.054Z,6.47
2023-02-17T05:11:29.528Z,6.90
2023-02-17T05:13:57.825Z,5.82
2023-02-17T05:16:26.141Z,6.55
2023-02-17T05:18:54.430Z,6.53
2023-02-17T05:21:26.718Z,6.65
2023-02-17T05:23:55.066Z,5.90
2023-02-17T05:26:23.373Z,6.32
2023-02-17T05:28:51.664Z,5.82
2023-02-17T05:31:19.989Z,6.20
2023-02-17T05:33:48.287Z,6.15
2023-02-17T05:36:16.662Z,6.03
2023-02-17T05:38:49.213Z,5.68
2023-02-17T05:41:17.707Z,6.38
2023-02-17T05:43:46.079Z,6.10
2023-02-17T05:46:14.414Z,6.10
2023-02-17T05:48:42.807Z,5.90
2023-02-17T05:51:11.239Z,5.82
2023-02-17T05:53:39.525Z,6.05
2023-02-17T05:56:09.573Z,6.10
2023-02-17T05:58:37.860Z,5.60
2023-02-17T06:01:09.169Z,5.75
2023-02-17T06:03:37.475Z,5.95
2023-02-17T06:06:06.366Z,5.22
2023-02-17T06:08:34.912Z,5.70
2023-02-17T06:11:03.203Z,5.63
2023-02-17T06:13:32.874Z,5.30
2023-02-17T06:16:01.464Z,5.38
2023-02-17T06:18:29.757Z,5.85
2023-02-17T06:20:58.282Z,5.80
2023-02-17T06:23:26.589Z,6.10
2023-02-17T06:25:55.379Z,6.00
2023-02-17T06:28:23.665Z,5.95
2023-02-17T06:30:53.378Z,6.75
2023-02-17T06:33:21.631Z,6.75
2023-02-17T06:35:50.940Z,6.85
2023-02-17T06:38:19.461Z,6.82
2023-02-17T06:40:47.742Z,7.47
2023-02-17T06:43:16.092Z,7.22
2023-02-17T06:45:44.403Z,7.78
2023-02-17T06:48:14.105Z,7.30
2023-02-17T06:50:42.358Z,7.10
2023-02-17T06:53:10.652Z,6.50
2023-02-17T06:55:39.632Z,7.32
2023-02-17T06:58:08.460Z,7.47
2023-02-17T07:00:36.744Z,7.25
2023-02-17T07:03:05.144Z,7.60
2023-02-17T07:05:36.125Z,7.53
2023-02-17T07:08:05.016Z,7.70
2023-02-17T07:10:33.572Z,7.43
2023-02-17T07:13:01.894Z,6.97
2023-02-17T07:15:30.191Z,6.97
2023-02-17T07:17:58.518Z,7.05
2023-02-17T07:20:26.965Z,7.68
2023-02-17T07:22:56.621Z,7.43
2023-02-17T07:25:24.923Z,7.45
2023-02-17T07:27:53.326Z,7.35
2023-02-17T07:30:21.675Z,6.28
2023-02-17T07:32:50.020Z,6.88
2023-02-17T07:35:18.379Z,6.40
2023-02-17T07:37:46.657Z,7.22
2023-02-17T07:40:16.420Z,6.75
2023-02-17T07:42:44.701Z,6.38
2023-02-17T07:45:12.988Z,5.72
2023-02-17T07:47:41.264Z,6.13
2023-02-17T07:50:10.215Z,5.35
2023-02-17T07:52:38.506Z,5.85
2023-02-17T07:55:07.044Z,6.10
2023-02-17T07:57:36.694Z,5.63
2023-02-17T08:00:05.525Z,5.68
2023-02-17T08:02:33.827Z,5.38
2023-02-17T08:05:02.110Z,4.90
2023-02-17T08:07:31.887Z,4.78
2023-02-17T08:10:18.200Z,5.03
2023-02-17T08:13:05.497Z,4.50
2023-02-17T08:15:35.361Z,4.65
2023-02-17T08:18:04.996Z,3.72
2023-02-17T08:20:35.236Z,4.07
2023-02-17T08:23:04.448Z,4.40
2023-02-17T08:25:33.570Z,4.18
2023-02-17T08:28:03.485Z,4.05
2023-02-17T08:30:32.840Z,3.70
2023-02-17T08:33:02.253Z,4.20
2023-02-17T08:35:30.564Z,4.60
2023-02-17T08:37:58.833Z,3.67
2023-02-17T08:40:27.322Z,3.78
2023-02-17T08:42:55.588Z,4.55
2023-02-17T08:45:25.870Z,3.97
2023-02-17T08:47:54.147Z,4.35
2023-02-17T08:50:23.749Z,3.95
2023-02-17T08:52:52.063Z,3.95
2023-02-17T08:55:22.845Z,3.55
2023-02-17T08:57:51.392Z,3.75
2023-02-17T09:00:20.060Z,3.90
2023-02-17T09:02:49.750Z,3.53
2023-02-17T09:05:18.084Z,3.70
2023-02-17T09:07:46.516Z,3.60
2023-02-17T09:10:15.115Z,3.63
2023-02-17T09:12:43.358Z,3.90
2023-02-17T09:15:11.658Z,3.53
2023-02-17T09:17:41.075Z,3.33
2023-02-17T09:20:23.786Z,3.83
2023-02-17T09:22:53.225Z,3.65
2023-02-17T09:25:21.569Z,3.17
2023-02-17T09:27:49.914Z,3.33
2023-02-17T09:30:18.348Z,3.67
2023-02-17T09:32:46.740Z,3.28
2023-02-17T09:35:17.424Z,3.40
2023-02-17T09:37:46.423Z,3.28
2023-02-17T09:40:17.700Z,3.17
2023-02-17T09:42:45.949Z,4.00
2023-02-17T09:45:19.114Z,3.33
2023-02-17T09:47:49.804Z,3.10
2023-02-17T09:50:21.406Z,3.38
2023-02-17T09:52:54.534Z,3.33
2023-02-17T09:55:25.391Z,3.60
2023-02-17T09:57:57.465Z,3.35
2023-02-17T10:00:27.153Z,3.35
2023-02-17T10:02:59.561Z,3.20
2023-02-17T10:05:31.684Z,2.90
2023-02-17T10:08:01.975Z,2.95
2023-02-17T10:10:33.248Z,3.03
2023-02-17T10:13:03.338Z,3.20
2023-02-17T10:15:33.634Z,2.92
2023-02-17T10:18:06.073Z,3.28
2023-02-17T10:20:37.135Z,3.13
2023-02-17T10:23:08.745Z,2.75
2023-02-17T10:25:46.516Z,2.75
2023-02-17T10:28:19.553Z,2.70
2023-02-17T10:30:51.326Z,2.53
2023-02-17T10:33:23.467Z,2.83
2023-02-17T10:35:54.368Z,2.63
2023-02-17T10:38:32.656Z,3.20
2023-02-17T10:41:02.097Z,2.45
2023-02-17T10:43:32.035Z,2.33
2023-02-17T10:46:01.698Z,3.00
2023-02-17T10:48:34.009Z,2.17
2023-02-17T10:51:03.723Z,2.55
2023-02-17T10:53:34.278Z,2.90
2023-02-17T10:56:05.087Z,2.50
2023-02-17T10:58:35.689Z,2.25
2023-02-17T11:01:06.206Z,2.28
2023-02-17T11:03:38.355Z,2.15
2023-02-17T11:06:16.322Z,2.42
2023-02-17T11:08:47.272Z,2.30
2023-02-17T11:11:17.973Z,2.05
2023-02-17T11:14:04.178Z,2.25
2023-02-17T11:16:35.808Z,2.28
2023-02-17T11:19:04.262Z,2.25
2023-02-17T11:21:34.280Z,1.90
2023-02-17T11:24:04.208Z,2.15
2023-02-17T11:26:33.911Z,2.17
2023-02-17T11:29:12.128Z,2.45
2023-02-17T11:31:40.460Z,1.83
2023-02-17T11:34:15.579Z,2.00
2023-02-17T11:36:47.207Z,1.70
2023-02-17T11:39:22.190Z,1.90
2023-02-17T11:41:50.637Z,1.85
2023-02-17T11:44:24.905Z,1.73
2023-02-17T11:46:57.386Z,1.90
2023-02-17T11:49:39.013Z,1.70
2023-02-17T11:52:13.869Z,2.10
2023-02-17T11:54:49.243Z,1.98
2023-02-17T11:57:25.228Z,1.52
2023-02-17T12:00:04.483Z,1.90
2023-02-17T12:02:41.108Z,1.65
2023-02-17T12:05:15.045Z,1.77
2023-02-17T12:07:54.620Z,1.65
2023-02-17T12:10:29.383Z,1.88
2023-02-17T12:13:00.503Z,1.73
2023-02-17T12:15:45.180Z,2.03
2023-02-17T12:18:18.915Z,1.92
2023-02-17T12:23:24.214Z,2.03
2023-02-17T12:25:55.755Z,1.75
2023-02-17T12:28:37.778Z,1.90
2023-02-17T12:31:13.202Z,2.10
2023-02-17T12:33:48.822Z,2.17
2023-02-17T12:36:18.556Z,1.95
2023-02-17T12:38:49.599Z,5.00
2023-02-17T12:41:20.156Z,4.00
2023-02-17T12:43:49.495Z,6.32
2023-02-17T12:46:19.048Z,3.40
2023-02-17T12:48:53.193Z,3.15
2023-02-17T12:51:23.313Z,2.45
2023-02-17T12:53:54.617Z,2.60
2023-02-17T12:56:37.778Z,2.60
2023-02-17T12:59:12.173Z,2.87
2023-02-17T13:01:44.471Z,2.38
2023-02-17T13:04:16.390Z,3.03
2023-02-17T13:06:46.428Z,2.50
2023-02-17T13:09:22.830Z,2.38
2023-02-17T13:11:51.126Z,2.70
2023-02-17T13:14:27.258Z,2.97
2023-02-17T13:16:56.282Z,2.80
2023-02-17T13:19:31.543Z,3.08
2023-02-17T13:22:02.348Z,2.47
2023-02-17T13:24:36.281Z,3.05
2023-02-17T13:27:13.000Z,2.70
2023-02-17T13:29:41.742Z,2.90
2023-02-17T13:32:13.431Z,3.90
2023-02-17T13:34:43.421Z,3.95
2023-02-17T13:37:19.785Z,2.63
2023-02-17T13:39:49.409Z,3.33
2023-02-17T13:42:37.266Z,3.35
2023-02-17T13:45:13.267Z,3.42
2023-02-17T13:47:42.039Z,2.80
2023-02-17T13:50:27.995Z,2.70
2023-02-17T13:52:56.622Z,4.78
2023-02-17T13:55:26.611Z,3.15
2023-02-17T13:57:55.657Z,2.30
2023-02-17T14:00:25.268Z,2.40
2023-02-17T14:02:54.584Z,2.60
2023-02-17T14:05:28.815Z,2.80
2023-02-17T14:07:59.631Z,2.33
2023-02-17T14:10:29.562Z,2.45
2023-02-17T14:12:58.387Z,2.00
2023-02-17T14:15:28.081Z,2.78
2023-02-17T14:17:56.831Z,2.10
2023-02-17T14:20:29.622Z,1.98
2023-02-17T14:23:34.984Z,2.13
2023-02-17T14:25:56.908Z,1.80
2023-02-17T14:28:26.508Z,1.80
2023-02-17T14:30:57.599Z,1.90
2023-02-17T14:33:27.087Z,1.77
2023-02-17T14:35:56.336Z,1.88
2023-02-17T14:38:31.927Z,2.20
2023-02-17T14:41:01.619Z,1.77
2023-02-17T14:43:30.060Z,2.05
2023-02-17T14:46:01.381Z,1.65
2023-02-17T14:48:29.745Z,1.90
2023-02-17T14:51:01.310Z,2.03
2023-02-17T14:53:30.375Z,1.90
2023-02-17T14:56:02.942Z,1.88
2023-02-17T14:58:32.614Z,2.00
2023-02-17T15:01:01.281Z,2.08
2023-02-17T15:03:29.822Z,2.22
2023-02-17T15:05:58.196Z,2.60
2023-02-17T15:08:31.448Z,2.10
2023-02-17T15:10:59.774Z,1.90
2023-02-17T15:13:28.088Z,2.35
2023-02-17T15:15:57.800Z,2.53
2023-02-17T15:18:28.038Z,2.25
2023-02-17T15:20:59.336Z,2.38
2023-02-17T15:23:30.916Z,2.53
2023-02-17T15:26:00.355Z,2.40
2023-02-17T15:28:28.662Z,2.60
2023-02-17T15:30:58.452Z,2.78
2023-02-17T15:33:35.785Z,2.58
2023-02-17T15:36:04.040Z,2.45
2023-02-17T15:38:32.319Z,2.35
2023-02-17T15:41:00.604Z,2.60
2023-02-17T15:43:33.356Z,1.75
2023-02-17T15:46:02.985Z,2.53
2023-02-17T15:48:31.965Z,2.33
2023-02-17T15:51:00.261Z,2.25
2023-02-17T15:53:32.426Z,2.47
2023-02-17T15:56:01.350Z,2.70
2023-02-17T15:58:30.534Z,2.30
2023-02-17T16:01:01.575Z,2.33
2023-02-17T16:03:31.365Z,2.83
2023-02-17T16:05:59.603Z,2.30
2023-02-17T16:08:27.953Z,2.40
2023-02-17T16:10:56.251Z,2.53
2023-02-17T16:13:25.750Z,2.38
2023-02-17T16:15:54.393Z,2.95
2023-02-17T16:18:23.526Z,3.30
2023-02-17T16:20:55.114Z,2.90
2023-02-17T16:23:23.404Z,2.90
2023-02-17T16:25:52.122Z,2.58
2023-02-17T16:28:21.937Z,2.47
2023-02-17T16:30:50.570Z,2.35
2023-02-17T16:33:19.537Z,2.35
2023-02-17T16:35:48.103Z,1.98
2023-02-17T16:38:23.171Z,2.45
2023-02-17T16:40:54.813Z,2.33
2023-02-17T16:43:24.260Z,2.20
2023-02-17T16:45:54.757Z,2.60
2023-02-17T16:48:24.169Z,2.22
2023-02-17T16:50:53.795Z,2.65
2023-02-17T16:53:23.425Z,3.15
2023-02-17T16:55:52.531Z,2.28
2023-02-17T16:58:22.017Z,2.72
2023-02-17T17:00:53.520Z,2.20
2023-02-17T17:03:25.225Z,2.28
2023-02-17T17:05:56.006Z,2.75
2023-02-17T17:08:25.624Z,2.60
2023-02-17T17:10:53.909Z,2.90
2023-02-17T17:13:22.288Z,2.75
2023-02-17T17:15:50.838Z,2.85
2023-02-17T17:18:20.893Z,2.55
2023-02-17T17:20:49.447Z,2.78
2023-02-17T17:23:18.896Z,2.55
2023-02-17T17:25:48.715Z,2.95
2023-02-17T17:28:18.008Z,2.10
2023-02-17T17:30:46.795Z,2.30
2023-02-17T17:33:15.316Z,2.28
2023-02-17T17:35:43.579Z,2.22
2023-02-17T17:38:15.473Z,2.47
2023-02-17T17:40:49.218Z,2.38
2023-02-17T17:43:20.222Z,2.30
2023-02-17T17:45:48.663Z,2.33
2023-02-17T17:48:20.589Z,2.53
2023-02-17T17:50:53.219Z,3.17
2023-02-17T17:53:21.539Z,2.80
2023-02-17T17:55:49.894Z,2.60
2023-02-17T17:58:19.555Z,2.80
2023-02-17T18:00:47.851Z,3.72
2023-02-17T18:03:17.746Z,3.50
2023-02-17T18:05:48.778Z,3.53
2023-02-17T18:08:17.153Z,3.20
2023-02-17T18:10:51.034Z,3.70
2023-02-17T18:13:20.964Z,3.55
2023-02-17T18:15:51.145Z,3.97
2023-02-17T18:18:27.016Z,3.40
2023-02-17T18:20:57.508Z,3.45
2023-02-17T18:23:25.799Z,3.10
2023-02-17T18:25:56.472Z,3.72
2023-02-17T18:28:27.323Z,3.63
2023-02-17T18:30:59.238Z,3.10
2023-02-17T18:33:29.318Z,3.45
2023-02-17T18:36:10.260Z,3.50
2023-02-17T18:38:38.623Z,3.60
2023-02-17T18:41:07.416Z,3.42
2023-02-17T18:43:39.461Z,3.10
2023-02-17T18:46:09.706Z,3.42
2023-02-17T18:48:41.382Z,3.33
2023-02-17T18:51:09.905Z,2.78
2023-02-17T18:53:38.215Z,3.08
2023-02-17T18:56:11.614Z,2.95
2023-02-17T18:58:49.497Z,3.40
2023-02-17T19:01:18.465Z,3.40
2023-02-17T19:03:46.783Z,2.88
2023-02-17T19:06:17.715Z,3.45
2023-02-17T19:08:46.829Z,4.00
2023-02-17T19:11:15.839Z,3.25
2023-02-17T19:13:45.514Z,3.22
2023-02-17T19:16:14.593Z,3.55
2023-02-17T19:18:43.439Z,3.08
2023-02-17T19:21:14.566Z,3.25
2023-02-17T19:23:43.433Z,3.33
2023-02-17T19:26:12.401Z,3.13
2023-02-17T19:28:41.084Z,3.03
2023-02-17T19:31:11.722Z,4.20
2023-02-17T19:33:40.031Z,4.45
2023-02-17T19:36:09.551Z,6.93
2023-02-17T19:38:38.027Z,3.60
2023-02-17T19:41:06.989Z,3.63
2023-02-17T19:43:35.779Z,3.92
2023-02-17T19:46:04.565Z,3.78
2023-02-17T19:48:34.532Z,3.67
2023-02-17T19:51:05.152Z,5.13
2023-02-17T19:53:35.757Z,3.20
2023-02-17T19:56:12.348Z,3.20
2023-02-17T19:58:40.953Z,3.60
2023-02-17T20:01:10.319Z,3.25
2023-02-17T20:03:39.968Z,3.42
2023-02-17T20:06:11.369Z,3.38
2023-02-17T20:08:39.748Z,3.05
2023-02-17T20:11:09.122Z,3.58
2023-02-17T20:13:45.630Z,3.35
2023-02-17T20:16:14.694Z,3.15
2023-02-17T20:18:45.688Z,3.40
2023-02-17T20:21:15.159Z,3.67
2023-02-17T20:23:43.794Z,4.15
2023-02-17T20:26:12.948Z,3.60
2023-02-17T20:28:42.992Z,4.15
2023-02-17T20:31:11.863Z,3.58
2023-02-17T20:33:40.493Z,3.50
2023-02-17T20:36:11.778Z,3.58
2023-02-17T20:38:40.435Z,3.70
2023-02-17T20:41:09.553Z,3.60
2023-02-17T20:43:41.158Z,3.80
2023-02-17T20:46:09.779Z,3.92
2023-02-17T20:48:38.283Z,3.95
2023-02-17T20:51:06.768Z,3.88
2023-02-17T20:53:38.328Z,3.85
2023-02-17T20:56:13.320Z,3.40
2023-02-17T20:58:42.328Z,3.90
2023-02-17T21:01:10.724Z,4.05
2023-02-17T21:03:39.343Z,3.80
2023-02-17T21:06:17.449Z,3.80
2023-02-17T21:08:47.882Z,3.70
2023-02-17T21:11:16.174Z,4.05
2023-02-17T21:13:44.479Z,3.67
2023-02-17T21:16:13.956Z,3.45
2023-02-17T21:18:42.748Z,3.92
2023-02-17T21:21:12.048Z,4.00
2023-02-17T21:23:40.406Z,4.25
2023-02-17T21:26:13.689Z,4.70
2023-02-17T21:28:42.408Z,5.05
2023-02-17T21:31:10.905Z,3.88
2023-02-17T21:33:42.173Z,3.50
2023-02-17T21:36:11.513Z,3.83
2023-02-17T21:38:40.152Z,3.78
2023-02-17T21:41:13.650Z,3.50
2023-02-17T21:44:00.036Z,3.20
2023-02-17T21:46:30.388Z,4.20
2023-02-17T21:48:59.088Z,3.42
2023-02-17T21:51:27.943Z,3.85
2023-02-17T21:53:59.230Z,3.50
2023-02-17T21:56:28.912Z,3.67
2023-02-17T21:58:57.287Z,3.58
2023-02-17T22:01:27.156Z,3.83
2023-02-17T22:03:56.038Z,3.80
2023-02-17T22:06:28.296Z,3.85
2023-02-17T22:08:56.968Z,3.60
2023-02-17T22:11:26.624Z,3.85
2023-02-17T22:13:57.082Z,3.92
2023-02-17T22:16:25.732Z,4.10
2023-02-17T22:18:56.775Z,3.80
2023-02-17T22:21:25.536Z,3.67
2023-02-17T22:23:53.928Z,4.30
2023-02-17T22:26:23.451Z,3.70
2023-02-17T22:28:52.134Z,3.60
2023-02-17T22:31:23.445Z,4.00
2023-02-17T22:33:51.775Z,3.88
2023-02-17T22:36:22.164Z,4.05
2023-02-17T22:38:50.542Z,4.03
2023-02-17T22:41:20.151Z,4.05
2023-02-17T22:43:48.814Z,4.53
2023-02-17T22:46:29.606Z,4.15
2023-02-17T22:49:00.562Z,3.92
2023-02-17T22:51:29.795Z,3.97
2023-02-17T22:54:01.378Z,4.00
2023-02-17T22:56:29.998Z,4.60
2023-02-17T22:59:00.893Z,4.80
2023-02-17T23:01:35.135Z,4.60
2023-02-17T23:04:05.739Z,4.55
2023-02-17T23:06:37.337Z,4.57
2023-02-17T23:09:09.307Z,4.10
2023-02-17T23:11:53.686Z,4.63
2023-02-17T23:14:29.683Z,4.45
2023-02-17T23:16:59.767Z,4.15
2023-02-17T23:19:33.064Z,4.45
2023-02-17T23:22:04.339Z,4.60
2023-02-17T23:24:33.206Z,4.32
2023-02-17T23:27:03.272Z,4.95
2023-02-17T23:29:34.040Z,4.72
2023-02-17T23:32:04.738Z,4.88
2023-02-17T23:34:34.557Z,4.68
2023-02-17T23:37:07.632Z,4.32
2023-02-17T23:39:44.104Z,4.53
2023-02-17T23:42:17.805Z,4.57
2023-02-17T23:44:53.622Z,4.30
2023-02-17T23:47:23.421Z,5.10
2023-02-17T23:49:59.571Z,4.97
2023-02-17T23:52:28.172Z,4.80
2023-02-17T23:55:06.978Z,5.35
2023-02-17T23:57:39.377Z,4.63
